Time;durP1;ratioP1;P1;durP2;ratioP2;P2;SDS_P1;SDS_P2;PMS_P1;PMS_P2;Temp;Humidity;BMP_temperature;BMP_pressure;BME280_temperature;BME280_humidity;BME280_pressure;Samples;Min_cycle;Max_cycle;Signal;HPM_P1;HPM_P2
2022/03/09 00:02:00;;;;;;;4.80;3.47;;;4.40;99.90;;;;;;4916014;29;20843;-63
2022/03/09 00:04:29;;;;;;;3.60;2.90;;;4.30;99.90;;;;;;4915996;29;20264;-63
2022/03/09 00:06:58;;;;;;;4.43;3.30;;;4.40;99.90;;;;;;4915765;29;20243;-63
2022/03/09 00:09:26;;;;;;;5.30;2.93;;;4.30;99.90;;;;;;4915570;29;20700;-63
2022/03/09 00:11:54;;;;;;;5.00;3.50;;;4.30;99.90;;;;;;4915471;29;20500;-62
2022/03/09 00:14:22;;;;;;;4.33;3.10;;;4.20;99.90;;;;;;4919156;29;20243;-63
2022/03/09 00:16:51;;;;;;;5.43;2.87;;;4.20;99.90;;;;;;4915680;29;20571;-63
2022/03/09 00:19:19;;;;;;;5.00;2.90;;;4.40;99.90;;;;;;4896758;29;20787;-63
2022/03/09 00:21:48;;;;;;;4.10;3.40;;;4.60;99.90;;;;;;4905489;29;20531;-63
2022/03/09 00:24:19;;;;;;;2.83;2.60;;;4.60;99.90;;;;;;4915676;29;20709;-63
2022/03/09 00:26:47;;;;;;;3.77;2.80;;;4.40;99.90;;;;;;4915492;29;20249;-63
2022/03/09 00:29:17;;;;;;;3.83;3.00;;;4.40;99.90;;;;;;4934271;29;20523;-63
2022/03/09 00:31:45;;;;;;;4.60;3.13;;;4.40;99.90;;;;;;4934444;29;20664;-63
2022/03/09 00:34:13;;;;;;;3.73;2.97;;;4.20;99.90;;;;;;4914815;29;20551;-63
2022/03/09 00:36:42;;;;;;;3.70;2.93;;;4.30;99.90;;;;;;4915553;29;20504;-63
2022/03/09 00:39:10;;;;;;;5.43;2.93;;;4.60;99.90;;;;;;4933088;29;20859;-63
2022/03/09 00:41:39;;;;;;;4.07;3.13;;;4.50;99.90;;;;;;4934274;29;20271;-63
2022/03/09 00:44:07;;;;;;;3.87;2.93;;;4.50;99.90;;;;;;4916293;29;20243;-63
2022/03/09 00:46:36;;;;;;;3.50;2.50;;;4.50;99.90;;;;;;4914844;29;20483;-63
2022/03/09 00:49:04;;;;;;;3.87;2.90;;;4.40;99.90;;;;;;4932077;29;20470;-63
2022/03/09 00:51:32;;;;;;;3.93;2.63;;;4.30;99.90;;;;;;4934653;29;20714;-63
2022/03/09 00:54:00;;;;;;;5.20;2.70;;;4.30;99.90;;;;;;4934149;29;20484;-63
2022/03/09 00:56:28;;;;;;;4.70;3.20;;;4.20;99.90;;;;;;4934126;29;20530;-63
2022/03/09 00:58:58;;;;;;;3.43;2.80;;;4.20;99.90;;;;;;4933873;29;20559;-63
2022/03/09 01:01:26;;;;;;;5.70;2.63;;;4.10;99.90;;;;;;4933947;29;20507;-63
2022/03/09 01:03:55;;;;;;;4.70;3.10;;;3.90;99.90;;;;;;4917837;29;21012;-63
2022/03/09 01:06:23;;;;;;;3.53;3.07;;;3.80;99.90;;;;;;4914966;29;20492;-63
2022/03/09 01:08:51;;;;;;;3.73;2.80;;;3.70;99.90;;;;;;4914603;29;20484;-63
2022/03/09 01:11:20;;;;;;;3.63;2.50;;;3.80;99.90;;;;;;4914463;29;20531;-63
2022/03/09 01:13:49;;;;;;;3.97;2.90;;;4.00;99.90;;;;;;4914160;29;20484;-63
2022/03/09 01:16:18;;;;;;;3.70;2.90;;;4.20;99.90;;;;;;4914744;29;20235;-63
2022/03/09 01:18:46;;;;;;;6.10;3.20;;;4.10;99.90;;;;;;4914576;29;20475;-63
2022/03/09 01:21:14;;;;;;;3.80;3.27;;;3.90;99.90;;;;;;4914482;29;20503;-63
2022/03/09 01:23:46;;;;;;;3.47;3.07;;;3.80;99.90;;;;;;4910291;29;20472;-63
2022/03/09 01:26:14;;;;;;;4.30;3.00;;;3.90;99.90;;;;;;4914773;29;20481;-63
2022/03/09 01:28:44;;;;;;;4.00;3.10;;;4.00;99.90;;;;;;4928941;29;20576;-63
2022/03/09 01:31:12;;;;;;;4.23;3.40;;;3.90;99.90;;;;;;4933364;29;20488;-63
2022/03/09 01:33:41;;;;;;;4.17;3.10;;;3.70;99.90;;;;;;4933429;29;20502;-63
2022/03/09 01:36:09;;;;;;;4.23;3.10;;;3.50;99.90;;;;;;4933570;29;20474;-63
2022/03/09 01:38:37;;;;;;;6.57;3.00;;;3.40;99.90;;;;;;4933215;29;20523;-63
2022/03/09 01:41:06;;;;;;;4.17;3.03;;;3.30;99.90;;;;;;4933306;29;20502;-63
2022/03/09 01:43:34;;;;;;;4.40;3.20;;;3.30;99.90;;;;;;4924617;29;20829;-63
2022/03/09 01:46:02;;;;;;;6.23;3.23;;;3.30;99.90;;;;;;4914640;29;20476;-63
2022/03/09 01:48:31;;;;;;;4.23;3.03;;;3.30;99.90;;;;;;4927093;29;20482;-63
2022/03/09 01:51:00;;;;;;;3.70;2.90;;;3.30;99.90;;;;;;4933342;29;20512;-66
2022/03/09 01:53:28;;;;;;;4.00;2.93;;;3.20;99.90;;;;;;4933614;29;20466;-66
2022/03/09 01:55:57;;;;;;;4.73;3.00;;;3.20;99.90;;;;;;4933375;29;20495;-65
2022/03/09 01:58:25;;;;;;;4.60;3.00;;;3.30;99.90;;;;;;4933290;29;20525;-66
2022/03/09 02:00:53;;;;;;;7.93;3.37;;;3.30;99.90;;;;;;4933200;29;20492;-66
2022/03/09 02:03:21;;;;;;;6.87;3.53;;;3.30;99.90;;;;;;4933081;29;20489;-66
2022/03/09 02:05:50;;;;;;;6.27;3.70;;;3.50;99.90;;;;;;4875715;29;20500;-66
2022/03/09 02:11:05;;;;;;;4.80;3.40;;;3.50;99.90;;;;;;4885598;29;20500;-66
2022/03/09 02:13:37;;;;;;;6.37;4.53;;;3.80;99.90;;;;;;4926812;29;20472;-65
2022/03/09 02:16:06;;;;;;;6.23;4.13;;;3.70;99.90;;;;;;4933251;29;20502;-65
2022/03/09 02:18:35;;;;;;;5.70;4.00;;;3.80;99.90;;;;;;4919657;29;20471;-65
2022/03/09 02:21:04;;;;;;;5.37;4.10;;;3.70;99.90;;;;;;4914213;29;20471;-66
2022/03/09 02:23:33;;;;;;;6.27;4.00;;;3.60;99.90;;;;;;4920971;29;20887;-65
2022/03/09 02:26:04;;;;;;;6.17;4.53;;;3.60;99.90;;;;;;4917086;29;20548;-65
2022/03/09 02:28:37;;;;;;;5.30;3.73;;;3.60;99.90;;;;;;4930412;29;20476;-66
2022/03/09 02:31:06;;;;;;;5.77;4.00;;;3.40;99.90;;;;;;4936742;29;20493;-66
2022/03/09 02:33:35;;;;;;;4.30;3.53;;;3.50;99.90;;;;;;4936612;29;20460;-65
2022/03/09 02:36:03;;;;;;;4.80;3.43;;;3.50;99.90;;;;;;4933278;29;20992;-65
2022/03/09 02:38:34;;;;;;;7.23;4.07;;;3.50;99.90;;;;;;4919766;29;21093;-66
2022/03/09 02:41:02;;;;;;;4.97;3.57;;;3.40;99.90;;;;;;4917415;29;20491;-66
2022/03/09 02:43:30;;;;;;;4.43;3.77;;;3.50;99.90;;;;;;4929834;29;20557;-65
2022/03/09 02:45:58;;;;;;;5.20;3.87;;;3.30;99.90;;;;;;4917144;29;20545;-66
2022/03/09 02:48:27;;;;;;;4.30;3.60;;;3.30;99.90;;;;;;4929205;29;20491;-66
2022/03/09 02:50:55;;;;;;;4.53;3.30;;;3.10;99.90;;;;;;4936281;29;20586;-65
2022/03/09 02:53:23;;;;;;;4.03;2.70;;;3.10;99.90;;;;;;4924279;29;20477;-65
2022/03/09 02:55:53;;;;;;;5.00;2.87;;;3.10;99.90;;;;;;4917073;29;20508;-65
2022/03/09 02:58:21;;;;;;;3.90;3.10;;;3.10;99.90;;;;;;4917069;29;20562;-65
2022/03/09 03:00:49;;;;;;;4.67;3.23;;;3.10;99.90;;;;;;4916926;29;20583;-66
2022/03/09 03:03:19;;;;;;;3.87;2.40;;;3.00;99.90;;;;;;4919273;29;20478;-66
2022/03/09 03:05:47;;;;;;;4.80;2.80;;;3.10;99.90;;;;;;4917159;29;20485;-65
2022/03/09 03:08:15;;;;;;;3.00;2.30;;;3.10;99.90;;;;;;4915945;29;20504;-65
2022/03/09 03:10:45;;;;;;;4.97;3.23;;;3.10;99.90;;;;;;4917039;29;20556;-65
2022/03/09 03:13:14;;;;;;;3.20;2.90;;;3.00;99.90;;;;;;4917099;29;20550;-65
2022/03/09 03:15:43;;;;;;;3.20;2.80;;;3.10;99.90;;;;;;4916946;29;20484;-66
2022/03/09 03:18:11;;;;;;;3.50;3.00;;;3.10;99.90;;;;;;4926899;29;20514;-66
2022/03/09 03:20:39;;;;;;;5.00;2.97;;;2.90;99.90;;;;;;4935741;29;20534;-66
2022/03/09 03:23:07;;;;;;;4.73;3.00;;;2.80;99.90;;;;;;4934424;29;20528;-65
2022/03/09 03:25:35;;;;;;;5.63;3.37;;;2.70;99.90;;;;;;4919236;29;20472;-65
2022/03/09 03:28:04;;;;;;;3.77;3.00;;;2.60;99.90;;;;;;4916788;29;20488;-65
2022/03/09 03:30:33;;;;;;;3.30;2.73;;;2.70;99.90;;;;;;4916636;29;20485;-66
2022/03/09 03:33:01;;;;;;;3.93;2.80;;;2.90;99.90;;;;;;4916443;29;20557;-66
2022/03/09 03:35:30;;;;;;;4.87;3.50;;;3.00;99.90;;;;;;4916343;29;20478;-65
2022/03/09 03:37:58;;;;;;;6.50;2.93;;;2.80;99.90;;;;;;4918544;29;20492;-66
2022/03/09 03:40:26;;;;;;;2.80;2.47;;;2.80;99.90;;;;;;4916601;29;20875;-66
2022/03/09 03:42:54;;;;;;;4.47;3.60;;;2.90;99.90;;;;;;4924322;29;20894;-66
2022/03/09 03:45:22;;;;;;;3.73;3.03;;;3.00;99.90;;;;;;4920681;29;20477;-66
2022/03/09 03:47:52;;;;;;;5.07;3.40;;;2.80;99.90;;;;;;4916302;29;21086;-65
2022/03/09 03:50:20;;;;;;;5.60;3.23;;;2.60;99.90;;;;;;4916434;29;20481;-66
2022/03/09 03:52:49;;;;;;;4.23;2.50;;;2.40;99.90;;;;;;4915986;29;20503;-66
2022/03/09 03:55:17;;;;;;;3.60;2.90;;;2.80;99.90;;;;;;4916147;29;20484;-65
2022/03/09 03:57:45;;;;;;;3.60;2.90;;;3.00;99.90;;;;;;4916208;29;20480;-65
2022/03/09 04:00:15;;;;;;;4.53;2.70;;;3.30;99.90;;;;;;4916581;29;20506;-66
2022/03/09 04:02:43;;;;;;;7.80;3.70;;;3.10;99.90;;;;;;4922335;29;20554;-65
2022/03/09 04:05:13;;;;;;;5.07;3.53;;;3.00;99.90;;;;;;4921686;29;20531;-66
2022/03/09 04:07:41;;;;;;;3.67;2.93;;;2.90;99.90;;;;;;4917593;29;20596;-66
2022/03/09 04:10:09;;;;;;;3.47;3.10;;;3.00;99.90;;;;;;4915962;29;20555;-66
2022/03/09 04:12:37;;;;;;;4.47;3.23;;;2.90;99.90;;;;;;4921268;29;20867;-66
2022/03/09 04:15:06;;;;;;;3.70;3.03;;;2.90;99.90;;;;;;4934585;29;20828;-66
2022/03/09 04:17:42;;;;;;;5.33;2.83;;;2.90;99.90;;;;;;4934624;29;20474;-66
2022/03/09 04:20:14;;;;;;;3.80;2.83;;;3.00;99.90;;;;;;4934949;29;20481;-66
2022/03/09 04:22:43;;;;;;;3.93;3.00;;;3.00;99.90;;;;;;4934516;29;20479;-66
2022/03/09 04:25:11;;;;;;;4.33;2.67;;;3.10;99.90;;;;;;4921605;29;20805;-66
2022/03/09 04:27:40;;;;;;;5.67;3.10;;;3.10;99.90;;;;;;4921452;29;20468;-65
2022/03/09 04:30:10;;;;;;;6.63;3.23;;;3.00;99.90;;;;;;4934679;29;20470;-66
2022/03/09 04:32:38;;;;;;;4.00;3.33;;;3.10;99.90;;;;;;4926180;29;20511;-66
2022/03/09 04:35:09;;;;;;;4.50;3.17;;;2.90;99.90;;;;;;4915187;29;20469;-66
2022/03/09 04:37:39;;;;;;;4.77;3.10;;;2.90;99.90;;;;;;4912322;29;20462;-66
2022/03/09 04:40:11;;;;;;;3.77;3.13;;;2.70;99.90;;;;;;4912785;29;20462;-66
2022/03/09 04:42:40;;;;;;;4.27;3.03;;;2.80;99.90;;;;;;4914840;29;20548;-66
2022/03/09 04:45:08;;;;;;;6.97;3.67;;;2.90;99.90;;;;;;4914336;29;20461;-66
2022/03/09 04:47:36;;;;;;;3.70;2.73;;;2.70;99.90;;;;;;4912170;29;20511;-66
2022/03/09 04:50:05;;;;;;;3.30;2.90;;;2.70;99.90;;;;;;4914872;29;20824;-66
2022/03/09 04:52:33;;;;;;;3.80;3.17;;;3.00;99.90;;;;;;4914474;29;20893;-66
2022/03/09 04:55:03;;;;;;;5.80;3.80;;;3.00;99.90;;;;;;4914776;29;20496;-65
2022/03/09 04:57:34;;;;;;;4.70;3.20;;;2.90;99.90;;;;;;4914285;29;20480;-66
2022/03/09 05:00:02;;;;;;;3.47;3.10;;;2.70;99.90;;;;;;4914549;29;20879;-66
2022/03/09 05:02:31;;;;;;;5.70;3.67;;;2.40;99.90;;;;;;4916182;29;20485;-66
2022/03/09 05:04:59;;;;;;;4.33;2.57;;;2.20;99.90;;;;;;4914595;29;20512;-65
2022/03/09 05:07:28;;;;;;;4.73;3.37;;;2.50;99.90;;;;;;4910330;29;20479;-66
2022/03/09 05:09:56;;;;;;;3.73;3.20;;;2.60;99.90;;;;;;4914076;29;20569;-66
2022/03/09 05:12:25;;;;;;;4.60;3.30;;;2.30;99.90;;;;;;4914048;29;20477;-66
2022/03/09 05:14:54;;;;;;;3.23;2.70;;;2.10;99.90;;;;;;4914290;29;20492;-66
2022/03/09 05:17:22;;;;;;;3.10;2.50;;;2.10;99.90;;;;;;4914311;29;20494;-66
2022/03/09 05:19:50;;;;;;;3.73;2.80;;;2.40;99.90;;;;;;4914368;29;20477;-66
2022/03/09 05:22:18;;;;;;;3.90;3.30;;;2.40;99.90;;;;;;4915004;29;20506;-66
2022/03/09 05:24:52;;;;;;;6.50;3.17;;;2.20;99.90;;;;;;4923321;29;20899;-66
2022/03/09 05:27:20;;;;;;;4.57;3.40;;;2.10;99.90;;;;;;4922062;29;20547;-66
2022/03/09 05:29:50;;;;;;;5.40;3.00;;;2.30;99.90;;;;;;4914374;29;20490;-66
2022/03/09 05:32:18;;;;;;;3.10;2.50;;;2.40;99.90;;;;;;4897660;29;20844;-65
2022/03/09 05:34:49;;;;;;;4.70;3.50;;;2.40;99.90;;;;;;4914617;29;20474;-65
2022/03/09 05:37:23;;;;;;;4.77;2.87;;;2.20;99.90;;;;;;4914007;29;20505;-65
2022/03/09 05:39:51;;;;;;;6.30;3.73;;;2.50;99.90;;;;;;4914584;29;20470;-66
2022/03/09 05:42:20;;;;;;;10.40;4.07;;;2.70;99.90;;;;;;4917734;29;20517;-66
2022/03/09 05:44:48;;;;;;;10.60;4.40;;;2.80;99.90;;;;;;4922980;29;20565;-65
2022/03/09 05:47:37;;;;;;;6.47;4.17;;;2.80;99.90;;;;;;4914252;29;20480;-66
2022/03/09 05:50:06;;;;;;;7.73;4.20;;;2.60;99.90;;;;;;4914479;29;20494;-65
2022/03/09 05:52:35;;;;;;;12.50;5.63;;;2.60;99.90;;;;;;4919819;29;20525;-65
2022/03/09 05:55:04;;;;;;;7.67;4.97;;;2.90;99.90;;;;;;4932319;29;20548;-65
2022/03/09 05:57:33;;;;;;;7.17;4.43;;;2.90;99.90;;;;;;4917842;29;20481;-65
2022/03/09 06:00:02;;;;;;;7.27;4.30;;;2.90;99.90;;;;;;4912839;29;20553;-65
2022/03/09 06:02:39;;;;;;;7.40;4.77;;;2.90;99.90;;;;;;4917735;29;20564;-65
2022/03/09 06:05:09;;;;;;;9.47;4.27;;;3.00;99.90;;;;;;4917833;29;20487;-65
2022/03/09 06:07:37;;;;;;;7.27;4.33;;;3.00;99.90;;;;;;4917871;29;20474;-65
2022/03/09 06:10:07;;;;;;;6.10;4.33;;;2.90;99.90;;;;;;4917967;29;20464;-65
2022/03/09 06:12:35;;;;;;;8.47;4.20;;;2.80;99.90;;;;;;4917558;29;20453;-65
2022/03/09 06:15:03;;;;;;;9.17;4.73;;;2.80;99.90;;;;;;4917692;29;20474;-65
2022/03/09 06:17:33;;;;;;;9.50;4.37;;;2.90;99.90;;;;;;4919787;29;20490;-65
2022/03/09 06:20:02;;;;;;;6.07;4.23;;;3.00;99.90;;;;;;4917265;29;20503;-65
2022/03/09 06:22:31;;;;;;;6.27;4.20;;;2.90;99.90;;;;;;4917976;29;20881;-65
2022/03/09 06:24:59;;;;;;;7.47;4.47;;;3.00;99.90;;;;;;4917578;29;20511;-65
2022/03/09 06:27:27;;;;;;;6.43;4.47;;;3.20;99.90;;;;;;4917451;29;20480;-65
2022/03/09 06:29:57;;;;;;;7.77;4.97;;;3.30;99.90;;;;;;4917229;29;20506;-65
2022/03/09 06:32:25;;;;;;;5.30;3.90;;;3.40;99.90;;;;;;4918685;29;20729;-65
2022/03/09 06:34:56;;;;;;;7.10;4.10;;;3.00;99.90;;;;;;4913881;29;20515;-65
2022/03/09 06:37:25;;;;;;;5.60;3.63;;;2.80;99.90;;;;;;4920958;29;20565;-65
2022/03/09 06:39:56;;;;;;;6.40;4.10;;;2.70;99.90;;;;;;4916417;29;20488;-65
2022/03/09 06:42:24;;;;;;;5.50;3.43;;;2.60;99.90;;;;;;4920085;29;20529;-65
2022/03/09 06:44:53;;;;;;;4.60;3.73;;;2.70;99.90;;;;;;4917763;29;20477;-65
2022/03/09 06:47:21;;;;;;;6.87;4.00;;;2.80;99.90;;;;;;4917741;29;20603;-65
2022/03/09 06:49:49;;;;;;;8.13;5.00;;;3.10;99.90;;;;;;4921737;29;21109;-65
2022/03/09 06:52:18;;;;;;;5.40;4.00;;;3.10;99.90;;;;;;4920467;29;20564;-65
2022/03/09 06:54:48;;;;;;;5.90;4.20;;;3.10;99.90;;;;;;4919245;29;20523;-65
2022/03/09 06:57:16;;;;;;;5.63;4.30;;;3.10;99.90;;;;;;4918130;29;21056;-65
2022/03/09 06:59:44;;;;;;;5.80;4.00;;;3.20;99.90;;;;;;4916743;29;20476;-65
2022/03/09 07:02:13;;;;;;;7.40;4.37;;;3.60;99.90;;;;;;4918789;29;20472;-65
2022/03/09 07:04:41;;;;;;;6.27;4.57;;;3.80;99.90;;;;;;4921586;29;20515;-65
2022/03/09 07:07:09;;;;;;;6.80;4.70;;;4.00;99.90;;;;;;4917956;29;20491;-65
2022/03/09 07:09:37;;;;;;;5.27;3.83;;;4.00;99.90;;;;;;4893165;29;20467;-65
2022/03/09 07:12:08;;;;;;;8.27;4.30;;;4.30;99.90;;;;;;4897159;29;20480;-63
2022/03/09 07:14:38;;;;;;;5.97;4.53;;;4.60;99.90;;;;;;4896844;29;20496;-65
2022/03/09 07:17:07;;;;;;;4.40;3.93;;;4.60;99.90;;;;;;4896716;29;20487;-64
2022/03/09 07:19:35;;;;;;;5.77;3.50;;;4.70;99.90;;;;;;4896768;29;20464;-65
2022/03/09 07:22:03;;;;;;;6.13;3.73;;;4.80;99.90;;;;;;4897232;29;20480;-65
2022/03/09 07:24:31;;;;;;;7.17;4.50;;;5.10;99.90;;;;;;4897515;29;20567;-65
2022/03/09 07:26:59;;;;;;;5.40;3.90;;;5.30;99.90;;;;;;4898001;29;20571;-65
2022/03/09 07:29:29;;;;;;;5.63;3.90;;;5.30;99.90;;;;;;4897911;29;20501;-65
2022/03/09 07:31:57;;;;;;;5.43;4.00;;;5.30;99.90;;;;;;4897528;29;20502;-65
2022/03/09 07:34:26;;;;;;;3.90;3.37;;;5.50;99.90;;;;;;4898007;29;20994;-64
2022/03/09 07:36:58;;;;;;;4.70;3.57;;;5.60;99.90;;;;;;4896560;29;20504;-64
2022/03/09 07:39:27;;;;;;;6.00;3.53;;;5.90;99.90;;;;;;4879411;29;20241;-64
2022/03/09 07:41:56;;;;;;;5.23;3.63;;;6.00;99.90;;;;;;4879190;29;20229;-64
2022/03/09 07:44:25;;;;;;;6.10;3.67;;;6.10;99.90;;;;;;4909212;29;20233;-64
2022/03/09 07:46:55;;;;;;;5.93;3.80;;;6.30;99.90;;;;;;4897986;29;21025;-64
2022/03/09 07:49:23;;;;;;;4.40;3.70;;;6.40;99.90;;;;;;4879050;29;20793;-64
2022/03/09 07:51:52;;;;;;;6.53;3.87;;;6.50;99.90;;;;;;4879039;29;20477;-64
2022/03/09 07:54:20;;;;;;;5.90;3.30;;;6.60;99.90;;;;;;4903679;29;20292;-64
2022/03/09 07:56:49;;;;;;;7.47;4.10;;;6.70;99.90;;;;;;4897565;29;20724;-64
2022/03/09 07:59:17;;;;;;;4.30;3.70;;;6.90;99.90;;;;;;4897784;29;20269;-64
2022/03/09 08:01:45;;;;;;;5.47;3.67;;;7.10;99.90;;;;;;4897587;29;20538;-64
2022/03/09 08:04:15;;;;;;;6.93;3.83;;;7.30;99.90;;;;;;4897377;29;20247;-64
2022/03/09 08:06:43;;;;;;;4.83;3.50;;;7.40;99.90;;;;;;4897864;29;20301;-64
2022/03/09 08:09:11;;;;;;;4.60;3.80;;;7.70;99.90;;;;;;4930372;29;20242;-64
2022/03/09 08:11:40;;;;;;;7.20;4.10;;;7.90;99.90;;;;;;4935116;29;20232;-64
2022/03/09 08:14:08;;;;;;;4.97;4.27;;;7.90;99.90;;;;;;4917186;29;20236;-64
2022/03/09 08:16:37;;;;;;;6.17;3.83;;;8.00;99.90;;;;;;4915950;29;20719;-64
2022/03/09 08:19:05;;;;;;;5.70;4.03;;;8.20;99.90;;;;;;4915754;29;20237;-64
2022/03/09 08:21:38;;;;;;;5.17;4.20;;;8.40;99.90;;;;;;4917492;29;20317;-64
2022/03/09 08:24:06;;;;;;;8.80;4.27;;;8.60;99.90;;;;;;4929876;29;20597;-64
2022/03/09 08:26:35;;;;;;;5.07;3.87;;;8.70;99.90;;;;;;4915503;29;20265;-64
2022/03/09 08:29:04;;;;;;;5.50;4.07;;;8.90;99.90;;;;;;4915356;29;20236;-64
2022/03/09 08:31:33;;;;;;;5.53;3.70;;;9.10;99.90;;;;;;4915613;29;20293;-64
2022/03/09 08:34:07;;;;;;;4.93;3.83;;;9.20;99.90;;;;;;4915597;29;20607;-64
2022/03/09 08:36:36;;;;;;;6.00;3.90;;;9.30;99.90;;;;;;4915516;29;20236;-64
2022/03/09 08:39:04;;;;;;;8.40;4.30;;;9.50;99.90;;;;;;4915416;29;20245;-64
2022/03/09 08:41:32;;;;;;;5.70;4.07;;;9.70;99.90;;;;;;4915388;29;20234;-64
2022/03/09 08:44:01;;;;;;;5.60;4.30;;;9.80;99.90;;;;;;4915201;29;20235;-64
2022/03/09 08:46:29;;;;;;;6.00;3.60;;;10.00;99.90;;;;;;4915359;29;20768;-64
2022/03/09 08:48:57;;;;;;;5.63;3.83;;;10.00;99.90;;;;;;4931183;29;20322;-64
2022/03/09 08:51:26;;;;;;;6.10;4.10;;;10.10;99.90;;;;;;4934142;29;20353;-63
2022/03/09 08:53:55;;;;;;;6.27;4.07;;;10.20;99.90;;;;;;4934004;29;20251;-64
2022/03/09 08:56:23;;;;;;;5.30;4.17;;;10.20;99.90;;;;;;4934026;29;20291;-64
2022/03/09 08:58:53;;;;;;;5.43;3.87;;;10.30;99.90;;;;;;4933843;29;20246;-64
2022/03/09 09:01:22;;;;;;;5.73;3.70;;;10.50;99.90;;;;;;4923760;29;20236;-64
2022/03/09 09:04:11;;;;;;;5.63;4.20;;;10.70;99.90;;;;;;4915553;29;20262;-64
2022/03/09 09:06:40;;;;;;;7.60;4.50;;;11.00;99.90;;;;;;4914378;29;20240;-64
2022/03/09 09:09:10;;;;;;;6.03;4.03;;;11.00;99.90;;;;;;4913875;29;20256;-64
2022/03/09 09:11:38;;;;;;;6.77;4.50;;;11.00;99.90;;;;;;4913669;29;20258;-62
2022/03/09 09:14:07;;;;;;;7.13;4.00;;;11.20;99.90;;;;;;4914666;29;20243;-62
2022/03/09 09:16:35;;;;;;;6.00;4.13;;;11.40;99.90;;;;;;4914800;29;20244;-62
2022/03/09 09:19:04;;;;;;;5.33;4.03;;;11.50;99.90;;;;;;4931900;29;20772;-61
2022/03/09 09:21:32;;;;;;;5.13;4.07;;;11.50;99.90;;;;;;4932182;29;20293;-62
2022/03/09 09:24:00;;;;;;;6.57;4.20;;;11.70;99.90;;;;;;4929402;29;20272;-61
2022/03/09 09:26:29;;;;;;;5.47;4.07;;;11.60;99.90;;;;;;4914799;29;20746;-61
2022/03/09 09:29:17;;;;;;;5.93;4.67;;;11.70;99.90;;;;;;4922510;29;20244;-61
2022/03/09 09:31:46;;;;;;;6.10;4.60;;;11.90;99.90;;;;;;4914218;29;20286;-62
2022/03/09 09:34:14;;;;;;;5.90;4.77;;;12.00;99.90;;;;;;4914495;29;20240;-61
2022/03/09 09:36:45;;;;;;;5.10;4.40;;;12.00;99.90;;;;;;4915126;29;20250;-61
2022/03/09 09:39:14;;;;;;;5.57;4.10;;;12.30;99.90;;;;;;4932909;29;20285;-61
2022/03/09 09:41:45;;;;;;;5.33;4.33;;;12.50;99.90;;;;;;4933649;29;20238;-61
2022/03/09 09:44:14;;;;;;;5.57;4.83;;;12.70;99.90;;;;;;4927686;29;20263;-61
2022/03/09 09:46:45;;;;;;;7.20;4.63;;;12.50;99.90;;;;;;4914885;29;20237;-61
2022/03/09 09:49:15;;;;;;;6.40;4.97;;;12.50;99.90;;;;;;4914799;29;20246;-61
2022/03/09 09:51:46;;;;;;;5.93;4.53;;;12.50;99.90;;;;;;4914580;29;20661;-61
2022/03/09 09:54:15;;;;;;;7.60;5.20;;;12.70;99.90;;;;;;4914411;29;20322;-61
2022/03/09 09:56:45;;;;;;;6.90;4.97;;;12.80;99.90;;;;;;4914430;29;20337;-61
2022/03/09 09:59:13;;;;;;;5.27;4.67;;;12.90;99.90;;;;;;4932488;29;20274;-61
2022/03/09 10:01:42;;;;;;;6.53;5.07;;;13.00;99.90;;;;;;4933435;29;20241;-61
2022/03/09 10:04:10;;;;;;;8.33;4.80;;;13.10;99.90;;;;;;4917265;29;20239;-61
2022/03/09 10:06:38;;;;;;;6.80;5.10;;;13.20;99.90;;;;;;4914345;29;20235;-61
2022/03/09 10:09:08;;;;;;;6.73;5.30;;;13.30;99.90;;;;;;4931270;29;20321;-61
2022/03/09 10:11:49;;;;;;;7.47;5.10;;;13.50;99.90;;;;;;4933310;29;20290;-61
2022/03/09 10:14:18;;;;;;;7.73;5.00;;;13.40;99.90;;;;;;4924111;29;20272;-61
2022/03/09 10:17:03;;;;;;;6.30;5.30;;;13.50;99.90;;;;;;4913964;29;20295;-61
2022/03/09 10:19:34;;;;;;;6.40;4.80;;;13.50;99.90;;;;;;4897408;29;20311;-61
2022/03/09 10:22:22;;;;;;;7.17;5.00;;;13.90;99.90;;;;;;4920272;29;20269;-61
2022/03/09 10:25:18;;;;;;;7.17;5.10;;;14.30;99.90;;;;;;4920019;29;20351;-61
2022/03/09 10:27:49;;;;;;;6.47;4.80;;;14.30;99.90;;;;;;4920763;29;20600;-61
2022/03/09 10:30:19;;;;;;;6.63;5.00;;;14.40;99.90;;;;;;4933150;29;20238;-61
2022/03/09 10:32:53;;;;;;;7.30;5.37;;;14.60;99.90;;;;;;4916097;29;20240;-61
2022/03/09 10:35:40;;;;;;;7.87;5.33;;;14.60;99.90;;;;;;4914200;29;20247;-61
2022/03/09 10:38:09;;;;;;;7.03;5.27;;;14.60;99.90;;;;;;4914314;29;20250;-61
2022/03/09 10:40:43;;;;;;;5.93;4.83;;;14.70;99.90;;;;;;4914396;29;20240;-61
2022/03/09 10:43:14;;;;;;;8.17;5.40;;;14.80;99.90;;;;;;4914217;29;20315;-61
2022/03/09 10:45:59;;;;;;;6.47;5.20;;;14.80;99.90;;;;;;4917591;29;20300;-61
2022/03/09 10:48:28;;;;;;;7.67;5.30;;;14.60;99.90;;;;;;4917294;29;20580;-61
2022/03/09 10:50:56;;;;;;;6.90;5.17;;;14.70;99.90;;;;;;4917366;29;20240;-61
2022/03/09 10:53:25;;;;;;;6.43;5.23;;;14.90;99.90;;;;;;4929012;29;20704;-61
2022/03/09 10:55:54;;;;;;;7.03;5.47;;;15.00;99.90;;;;;;4921905;29;20244;-61
2022/03/09 10:58:23;;;;;;;7.70;5.73;;;15.30;99.90;;;;;;4928532;29;20258;-61
2022/03/09 11:00:53;;;;;;;8.50;5.60;;;15.20;99.90;;;;;;4936260;29;20239;-61
2022/03/09 11:03:23;;;;;;;7.30;6.10;;;15.10;99.80;;;;;;4931057;29;20228;-61
2022/03/09 11:05:53;;;;;;;7.67;5.80;;;15.40;99.90;;;;;;4917110;29;20249;-61
2022/03/09 11:08:23;;;;;;;6.73;4.63;;;15.50;99.90;;;;;;4918749;29;20596;-61
2022/03/09 11:10:54;;;;;;;6.30;5.17;;;15.20;99.50;;;;;;4916890;29;20725;-61
2022/03/09 11:13:24;;;;;;;6.87;5.93;;;15.10;98.50;;;;;;4916867;29;20244;-61
2022/03/09 11:15:54;;;;;;;7.10;5.63;;;15.20;99.50;;;;;;4916810;29;20652;-61
2022/03/09 11:18:24;;;;;;;6.47;4.83;;;15.10;98.80;;;;;;4928413;29;20236;-60
2022/03/09 11:20:54;;;;;;;6.43;5.57;;;14.90;99.40;;;;;;4930028;29;20596;-61
2022/03/09 11:23:24;;;;;;;5.80;5.20;;;14.70;98.20;;;;;;4916003;29;20224;-62
2022/03/09 11:25:57;;;;;;;6.67;5.67;;;14.70;99.90;;;;;;4915684;29;20255;-61
2022/03/09 11:28:30;;;;;;;7.10;5.10;;;15.00;99.50;;;;;;4913451;29;20255;-61
2022/03/09 11:31:01;;;;;;;6.20;5.37;;;15.30;98.60;;;;;;4913616;29;20291;-61
2022/03/09 11:33:44;;;;;;;7.10;5.63;;;15.20;98.10;;;;;;4915837;29;20460;-60
2022/03/09 11:36:35;;;;;;;10.93;6.37;;;15.40;97.50;;;;;;4915075;29;20243;-61
2022/03/09 11:39:24;;;;;;;7.20;6.03;;;15.10;98.80;;;;;;4916244;29;20309;-61
2022/03/09 11:42:34;;;;;;;7.23;5.70;;;15.30;98.60;;;;;;4914688;29;20328;-60
2022/03/09 11:45:31;;;;;;;6.57;5.63;;;15.00;96.50;;;;;;4915782;29;20239;-61
2022/03/09 11:48:12;;;;;;;6.00;5.40;;;15.20;96.30;;;;;;4888469;29;20259;-61
2022/03/09 11:51:12;;;;;;;5.67;4.80;;;15.20;96.20;;;;;;4913586;29;20692;-61
2022/03/09 11:54:00;;;;;;;8.57;5.50;;;15.40;96.10;;;;;;4911296;29;20320;-61
2022/03/09 11:56:33;;;;;;;8.93;5.70;;;15.60;96.20;;;;;;4915566;29;20316;-60
2022/03/09 11:59:16;;;;;;;8.40;6.00;;;15.40;96.30;;;;;;4915837;29;20323;-61
2022/03/09 12:02:15;;;;;;;6.03;5.43;;;14.80;96.20;;;;;;4913547;29;20232;-61
2022/03/09 12:05:03;;;;;;;6.90;5.70;;;14.70;98.70;;;;;;4916033;29;20617;-61
2022/03/09 12:07:48;;;;;;;7.57;6.10;;;14.60;97.40;;;;;;4913661;29;20771;-61
2022/03/09 12:10:18;;;;;;;6.93;5.80;;;14.60;98.80;;;;;;4914570;29;20236;-61
2022/03/09 12:13:25;;;;;;;7.67;5.43;;;14.60;96.10;;;;;;4915381;29;20232;-61
2022/03/09 12:16:18;;;;;;;6.83;5.60;;;14.80;96.40;;;;;;4915499;29;20243;-61
2022/03/09 12:18:51;;;;;;;7.70;5.93;;;14.60;96.40;;;;;;4923774;29;20280;-61
2022/03/09 12:21:21;;;;;;;8.07;5.67;;;14.40;97.80;;;;;;4915067;29;20244;-60
2022/03/09 12:24:35;;;;;;;8.30;5.43;;;14.40;97.60;;;;;;4915043;29;20241;-61
2022/03/09 12:27:25;;;;;;;7.13;5.70;;;14.30;97.10;;;;;;4915794;29;20241;-61
2022/03/09 12:29:53;;;;;;;7.63;5.40;;;14.50;96.20;;;;;;4925584;29;20248;-61
2022/03/09 12:32:22;;;;;;;7.10;5.43;;;14.60;97.20;;;;;;4922244;29;20561;-61
2022/03/09 12:34:53;;;;;;;7.33;5.57;;;14.80;95.70;;;;;;4911837;29;20245;-61
2022/03/09 12:37:26;;;;;;;7.07;5.93;;;14.70;95.10;;;;;;4914960;29;20244;-61
2022/03/09 12:39:57;;;;;;;5.97;5.20;;;14.20;94.80;;;;;;4912653;29;20241;-61
2022/03/09 12:42:28;;;;;;;6.67;5.47;;;14.30;95.90;;;;;;4913641;29;20284;-61
2022/03/09 12:45:01;;;;;;;6.53;5.70;;;14.30;95.60;;;;;;4914675;29;20236;-61
2022/03/09 12:47:34;;;;;;;7.60;5.40;;;14.40;94.90;;;;;;4915793;29;20232;-61
2022/03/09 12:50:05;;;;;;;7.30;5.60;;;14.40;95.30;;;;;;4926111;29;20765;-61
2022/03/09 12:52:44;;;;;;;6.70;5.87;;;14.40;95.60;;;;;;4931619;29;20283;-61
2022/03/09 12:55:19;;;;;;;6.70;5.40;;;14.40;95.70;;;;;;4919430;29;20243;-61
2022/03/09 12:57:54;;;;;;;6.70;5.90;;;14.40;94.20;;;;;;4916761;29;20726;-60
2022/03/09 13:00:25;;;;;;;7.83;5.87;;;14.50;95.40;;;;;;4923570;29;20705;-61
2022/03/09 13:02:54;;;;;;;6.83;5.80;;;14.20;96.00;;;;;;4922379;29;20326;-61
2022/03/09 13:05:26;;;;;;;7.87;5.50;;;14.10;94.50;;;;;;4915955;29;20244;-61
2022/03/09 13:07:56;;;;;;;6.70;5.47;;;14.10;95.60;;;;;;4913795;29;20336;-61
2022/03/09 13:10:25;;;;;;;7.20;5.63;;;14.30;94.90;;;;;;4914541;29;20239;-61
2022/03/09 13:12:56;;;;;;;6.57;5.47;;;14.30;94.10;;;;;;4914376;29;20240;-61
2022/03/09 13:15:38;;;;;;;7.13;5.23;;;14.10;93.40;;;;;;4913503;29;20232;-61